sensor_id;sensor_type;location;lat;lon;timestamp;pressure;altitude;pressure_sealevel;temperature;humidity
40948;BME280;49382;-25.924;28.194;2023-02-20T00:01:52;84467.52;;;20.17;50.28
40948;BME280;49382;-25.924;28.194;2023-02-20T00:04:15;84469.22;;;20.04;50.83
40948;BME280;49382;-25.924;28.194;2023-02-20T00:06:40;84465.64;;;20.37;51.34
40948;BME280;49382;-25.924;28.194;2023-02-20T00:09:05;84459.15;;;20.71;50.96
40948;BME280;49382;-25.924;28.194;2023-02-20T00:11:30;84459.49;;;20.25;51.95
40948;BME280;49382;-25.924;28.194;2023-02-20T00:13:55;84456.16;;;20.34;51.60
40948;BME280;49382;-25.924;28.194;2023-02-20T00:16:21;84455.31;;;20.11;50.75
40948;BME280;49382;-25.924;28.194;2023-02-20T00:18:46;84459.83;;;20.34;51.07
40948;BME280;49382;-25.924;28.194;2023-02-20T00:21:12;84462.56;;;20.24;51.52
40948;BME280;49382;-25.924;28.194;2023-02-20T00:23:37;84465.79;;;20.96;50.91
40948;BME280;49382;-25.924;28.194;2023-02-20T00:26:02;84462.43;;;20.17;52.58
40948;BME280;49382;-25.924;28.194;2023-02-20T00:28:27;84456.05;;;20.63;52.34
40948;BME280;49382;-25.924;28.194;2023-02-20T00:30:53;84456.71;;;21.58;49.39
40948;BME280;49382;-25.924;28.194;2023-02-20T00:33:19;84451.45;;;22.29;47.58
40948;BME280;49382;-25.924;28.194;2023-02-20T00:35:44;84456.87;;;21.03;50.05
40948;BME280;49382;-25.924;28.194;2023-02-20T00:38:10;84458.41;;;20.52;49.80
40948;BME280;49382;-25.924;28.194;2023-02-20T00:40:36;84456.51;;;20.49;49.66
40948;BME280;49382;-25.924;28.194;2023-02-20T00:43:01;84453.08;;;20.56;50.10
40948;BME280;49382;-25.924;28.194;2023-02-20T00:45:27;84447.42;;;20.60;49.65
40948;BME280;49382;-25.924;28.194;2023-02-20T00:47:52;84446.76;;;19.87;52.52
40948;BME280;49382;-25.924;28.194;2023-02-20T00:50:19;84447.26;;;19.47;53.74
40948;BME280;49382;-25.924;28.194;2023-02-20T00:52:44;84448.41;;;19.22;54.31
40948;BME280;49382;-25.924;28.194;2023-02-20T00:55:10;84452.14;;;19.02;54.40
40948;BME280;49382;-25.924;28.194;2023-02-20T00:57:36;84455.55;;;19.40;53.78
40948;BME280;49382;-25.924;28.194;2023-02-20T01:00:02;84455.16;;;19.87;53.04
40948;BME280;49382;-25.924;28.194;2023-02-20T01:02:27;84455.02;;;20.51;50.92
40948;BME280;49382;-25.924;28.194;2023-02-20T01:04:53;84455.32;;;20.23;50.04
40948;BME280;49382;-25.924;28.194;2023-02-20T01:07:19;84456.66;;;21.14;48.41
40948;BME280;49382;-25.924;28.194;2023-02-20T01:09:44;84457.25;;;19.77;50.29
40948;BME280;49382;-25.924;28.194;2023-02-20T01:12:10;84455.20;;;20.18;50.24
40948;BME280;49382;-25.924;28.194;2023-02-20T01:14:36;84450.17;;;19.50;51.78
40948;BME280;49382;-25.924;28.194;2023-02-20T01:17:02;84444.80;;;19.86;50.98
40948;BME280;49382;-25.924;28.194;2023-02-20T01:19:28;84443.29;;;20.37;49.75
40948;BME280;49382;-25.924;28.194;2023-02-20T01:21:53;84438.11;;;21.12;48.91
40948;BME280;49382;-25.924;28.194;2023-02-20T01:24:19;84435.35;;;20.65;49.41
40948;BME280;49382;-25.924;28.194;2023-02-20T01:26:46;84437.46;;;19.91;51.02
40948;BME280;49382;-25.924;28.194;2023-02-20T01:29:11;84435.27;;;19.70;51.86
40948;BME280;49382;-25.924;28.194;2023-02-20T01:31:36;84437.84;;;19.57;51.06
40948;BME280;49382;-25.924;28.194;2023-02-20T01:34:02;84435.67;;;19.34;52.09
40948;BME280;49382;-25.924;28.194;2023-02-20T01:36:28;84437.74;;;19.77;51.03
40948;BME280;49382;-25.924;28.194;2023-02-20T01:38:54;84435.75;;;21.60;47.83
40948;BME280;49382;-25.924;28.194;2023-02-20T01:41:20;84432.19;;;20.02;50.76
40948;BME280;49382;-25.924;28.194;2023-02-20T01:43:46;84433.66;;;19.71;51.56
40948;BME280;49382;-25.924;28.194;2023-02-20T01:48:37;84437.09;;;20.42;48.93
40948;BME280;49382;-25.924;28.194;2023-02-20T01:51:02;84442.12;;;19.74;50.12
40948;BME280;49382;-25.924;28.194;2023-02-20T01:53:30;84441.49;;;20.27;49.32
40948;BME280;49382;-25.924;28.194;2023-02-20T01:55:57;84437.19;;;20.05;48.49
40948;BME280;49382;-25.924;28.194;2023-02-20T01:58:22;84437.32;;;18.74;52.25
40948;BME280;49382;-25.924;28.194;2023-02-20T02:00:45;84441.68;;;18.60;53.33
40948;BME280;49382;-25.924;28.194;2023-02-20T02:03:13;84443.07;;;18.51;54.89
40948;BME280;49382;-25.924;28.194;2023-02-20T02:05:39;84442.39;;;18.95;53.78
40948;BME280;49382;-25.924;28.194;2023-02-20T02:08:05;84450.33;;;19.03;52.54
40948;BME280;49382;-25.924;28.194;2023-02-20T02:10:32;84451.42;;;19.27;51.28
40948;BME280;49382;-25.924;28.194;2023-02-20T02:12:54;84449.59;;;18.46;54.22
40948;BME280;49382;-25.924;28.194;2023-02-20T02:15:21;84451.53;;;19.64;52.34
40948;BME280;49382;-25.924;28.194;2023-02-20T02:22:48;84454.59;;;19.23;52.62
40948;BME280;49382;-25.924;28.194;2023-02-20T02:37:15;84464.15;;;18.90;54.88
40948;BME280;49382;-25.924;28.194;2023-02-20T02:39:42;84464.93;;;19.81;52.19
40948;BME280;49382;-25.924;28.194;2023-02-20T02:42:07;84468.21;;;18.62;54.28
40948;BME280;49382;-25.924;28.194;2023-02-20T02:44:32;84468.70;;;18.26;54.63
40948;BME280;49382;-25.924;28.194;2023-02-20T02:46:57;84467.05;;;17.85;55.50
40948;BME280;49382;-25.924;28.194;2023-02-20T02:49:23;84468.23;;;18.89;54.30
40948;BME280;49382;-25.924;28.194;2023-02-20T02:51:46;84474.45;;;18.83;54.05
40948;BME280;49382;-25.924;28.194;2023-02-20T02:54:13;84475.21;;;18.42;55.03
40948;BME280;49382;-25.924;28.194;2023-02-20T02:56:38;84477.78;;;18.49;54.97
40948;BME280;49382;-25.924;28.194;2023-02-20T02:59:03;84480.10;;;18.48;55.05
40948;BME280;49382;-25.924;28.194;2023-02-20T03:01:29;84479.68;;;18.44;55.31
40948;BME280;49382;-25.924;28.194;2023-02-20T03:03:55;84484.69;;;19.17;53.78
40948;BME280;49382;-25.924;28.194;2023-02-20T03:06:21;84491.13;;;18.73;53.80
40948;BME280;49382;-25.924;28.194;2023-02-20T03:08:49;84496.67;;;18.82;54.12
40948;BME280;49382;-25.924;28.194;2023-02-20T03:11:14;84499.96;;;17.83;56.43
40948;BME280;49382;-25.924;28.194;2023-02-20T03:13:40;84502.04;;;18.34;55.37
40948;BME280;49382;-25.924;28.194;2023-02-20T03:16:04;84499.80;;;17.98;56.13
40948;BME280;49382;-25.924;28.194;2023-02-20T03:18:34;84501.35;;;17.93;56.87
40948;BME280;49382;-25.924;28.194;2023-02-20T03:20:57;84502.60;;;18.02;56.44
40948;BME280;49382;-25.924;28.194;2023-02-20T03:23:24;84505.53;;;17.64;57.26
40948;BME280;49382;-25.924;28.194;2023-02-20T03:25:49;84509.10;;;18.85;54.81
40948;BME280;49382;-25.924;28.194;2023-02-20T03:28:16;84511.26;;;18.65;55.06
40948;BME280;49382;-25.924;28.194;2023-02-20T03:30:43;84509.95;;;18.73;55.26
40948;BME280;49382;-25.924;28.194;2023-02-20T03:33:06;84512.30;;;18.21;54.45
40948;BME280;49382;-25.924;28.194;2023-02-20T03:35:32;84507.76;;;18.29;56.25
40948;BME280;49382;-25.924;28.194;2023-02-20T03:37:55;84505.89;;;17.76;56.79
40948;BME280;49382;-25.924;28.194;2023-02-20T03:40:22;84510.21;;;17.49;57.71
40948;BME280;49382;-25.924;28.194;2023-02-20T03:42:48;84513.16;;;18.07;57.21
40948;BME280;49382;-25.924;28.194;2023-02-20T03:45:13;84515.50;;;17.47;58.02
40948;BME280;49382;-25.924;28.194;2023-02-20T03:47:43;84512.50;;;17.91;57.56
40948;BME280;49382;-25.924;28.194;2023-02-20T03:50:05;84517.20;;;17.85;57.88
40948;BME280;49382;-25.924;28.194;2023-02-20T03:52:30;84520.32;;;17.87;58.12
40948;BME280;49382;-25.924;28.194;2023-02-20T03:54:56;84522.51;;;17.97;58.48
40948;BME280;49382;-25.924;28.194;2023-02-20T03:57:25;84523.24;;;18.65;56.50
40948;BME280;49382;-25.924;28.194;2023-02-20T03:59:49;84525.51;;;18.30;57.09
40948;BME280;49382;-25.924;28.194;2023-02-20T04:02:16;84526.40;;;18.00;57.31
40948;BME280;49382;-25.924;28.194;2023-02-20T04:04:43;84531.65;;;18.53;56.75
40948;BME280;49382;-25.924;28.194;2023-02-20T04:07:09;84530.09;;;18.61;56.23
40948;BME280;49382;-25.924;28.194;2023-02-20T04:09:32;84527.72;;;18.60;56.93
40948;BME280;49382;-25.924;28.194;2023-02-20T04:11:59;84530.08;;;18.41;58.41
40948;BME280;49382;-25.924;28.194;2023-02-20T04:14:25;84533.23;;;18.39;58.56
40948;BME280;49382;-25.924;28.194;2023-02-20T04:16:50;84536.86;;;18.53;58.49
40948;BME280;49382;-25.924;28.194;2023-02-20T04:19:13;84539.81;;;18.23;60.54
40948;BME280;49382;-25.924;28.194;2023-02-20T04:21:42;84544.66;;;18.66;59.92
40948;BME280;49382;-25.924;28.194;2023-02-20T04:24:07;84551.91;;;19.09;58.74
40948;BME280;49382;-25.924;28.194;2023-02-20T04:26:30;84556.99;;;19.60;57.57
40948;BME280;49382;-25.924;28.194;2023-02-20T04:28:56;84554.16;;;19.48;57.76
40948;BME280;49382;-25.924;28.194;2023-02-20T04:31:22;84556.04;;;19.31;57.74
40948;BME280;49382;-25.924;28.194;2023-02-20T04:33:47;84558.56;;;19.74;57.58
40948;BME280;49382;-25.924;28.194;2023-02-20T04:36:13;84560.83;;;19.67;57.94
40948;BME280;49382;-25.924;28.194;2023-02-20T04:38:38;84557.58;;;19.38;58.24
40948;BME280;49382;-25.924;28.194;2023-02-20T04:41:04;84551.67;;;19.77;57.13
40948;BME280;49382;-25.924;28.194;2023-02-20T04:43:30;84547.25;;;19.75;57.09
40948;BME280;49382;-25.924;28.194;2023-02-20T04:45:56;84545.42;;;19.47;57.30
40948;BME280;49382;-25.924;28.194;2023-02-20T04:48:22;84546.89;;;19.82;57.76
40948;BME280;49382;-25.924;28.194;2023-02-20T04:50:48;84550.35;;;20.05;56.90
40948;BME280;49382;-25.924;28.194;2023-02-20T04:53:13;84551.67;;;19.59;57.64
40948;BME280;49382;-25.924;28.194;2023-02-20T04:55:39;84547.64;;;19.62;58.00
40948;BME280;49382;-25.924;28.194;2023-02-20T04:58:05;84549.76;;;20.63;56.76
40948;BME280;49382;-25.924;28.194;2023-02-20T05:00:30;84554.40;;;19.96;57.45
40948;BME280;49382;-25.924;28.194;2023-02-20T05:02:57;84560.43;;;20.08;58.28
40948;BME280;49382;-25.924;28.194;2023-02-20T05:05:24;84563.08;;;19.55;58.89
40948;BME280;49382;-25.924;28.194;2023-02-20T05:07:47;84567.14;;;20.41;57.55
40948;BME280;49382;-25.924;28.194;2023-02-20T05:10:14;84574.46;;;19.71;59.16
40948;BME280;49382;-25.924;28.194;2023-02-20T05:12:38;84583.53;;;19.81;59.31
40948;BME280;49382;-25.924;28.194;2023-02-20T05:15:04;84584.33;;;20.02;60.24
40948;BME280;49382;-25.924;28.194;2023-02-20T05:17:29;84587.45;;;19.68;60.92
40948;BME280;49382;-25.924;28.194;2023-02-20T05:19:54;84594.83;;;20.10;60.42
40948;BME280;49382;-25.924;28.194;2023-02-20T05:22:20;84597.42;;;20.28;59.35
40948;BME280;49382;-25.924;28.194;2023-02-20T05:24:46;84605.81;;;21.15;57.45
40948;BME280;49382;-25.924;28.194;2023-02-20T05:27:11;84608.99;;;20.15;60.02
40948;BME280;49382;-25.924;28.194;2023-02-20T05:29:36;84618.14;;;20.40;58.92
40948;BME280;49382;-25.924;28.194;2023-02-20T05:32:02;84618.55;;;19.76;60.76
40948;BME280;49382;-25.924;28.194;2023-02-20T05:34:27;84621.72;;;21.26;57.64
40948;BME280;49382;-25.924;28.194;2023-02-20T05:36:54;84617.67;;;20.56;59.26
40948;BME280;49382;-25.924;28.194;2023-02-20T05:39:19;84614.42;;;21.17;57.64
40948;BME280;49382;-25.924;28.194;2023-02-20T05:41:45;84607.59;;;20.25;59.41
40948;BME280;49382;-25.924;28.194;2023-02-20T05:44:10;84607.12;;;21.33;58.03
40948;BME280;49382;-25.924;28.194;2023-02-20T05:46:40;84602.06;;;21.74;55.89
40948;BME280;49382;-25.924;28.194;2023-02-20T05:49:02;84597.42;;;20.93;58.34
40948;BME280;49382;-25.924;28.194;2023-02-20T05:51:29;84597.17;;;21.41;56.62
40948;BME280;49382;-25.924;28.194;2023-02-20T05:53:54;84602.25;;;21.85;55.97
40948;BME280;49382;-25.924;28.194;2023-02-20T05:56:19;84603.33;;;22.29;54.77
40948;BME280;49382;-25.924;28.194;2023-02-20T05:58:46;84606.52;;;22.21;57.61
40948;BME280;49382;-25.924;28.194;2023-02-20T06:01:16;84605.36;;;22.80;54.48
40948;BME280;49382;-25.924;28.194;2023-02-20T06:03:36;84606.40;;;22.30;56.89
40948;BME280;49382;-25.924;28.194;2023-02-20T06:06:02;84618.19;;;23.46;53.90
40948;BME280;49382;-25.924;28.194;2023-02-20T06:08:28;84627.52;;;23.26;55.59
40948;BME280;49382;-25.924;28.194;2023-02-20T06:10:54;84628.43;;;22.36;55.69
40948;BME280;49382;-25.924;28.194;2023-02-20T06:13:19;84632.93;;;22.91;54.51
40948;BME280;49382;-25.924;28.194;2023-02-20T06:15:45;84636.57;;;22.40;54.00
40948;BME280;49382;-25.924;28.194;2023-02-20T06:18:11;84634.21;;;22.77;53.50
40948;BME280;49382;-25.924;28.194;2023-02-20T06:20:37;84625.68;;;22.02;53.59
40948;BME280;49382;-25.924;28.194;2023-02-20T06:23:03;84627.99;;;22.22;52.77
40948;BME280;49382;-25.924;28.194;2023-02-20T06:25:28;84630.56;;;22.66;51.99
40948;BME280;49382;-25.924;28.194;2023-02-20T06:27:54;84626.71;;;22.87;52.74
40948;BME280;49382;-25.924;28.194;2023-02-20T06:30:20;84623.02;;;22.55;53.83
40948;BME280;49382;-25.924;28.194;2023-02-20T06:32:46;84624.38;;;22.23;53.51
40948;BME280;49382;-25.924;28.194;2023-02-20T06:35:11;84620.46;;;22.14;53.65
40948;BME280;49382;-25.924;28.194;2023-02-20T06:37:37;84621.40;;;23.29;50.31
40948;BME280;49382;-25.924;28.194;2023-02-20T06:40:04;84628.14;;;22.27;52.44
40948;BME280;49382;-25.924;28.194;2023-02-20T06:42:28;84629.70;;;23.81;50.27
40948;BME280;49382;-25.924;28.194;2023-02-20T06:44:54;84627.10;;;22.52;52.68
40948;BME280;49382;-25.924;28.194;2023-02-20T06:47:20;84626.99;;;21.97;53.43
40948;BME280;49382;-25.924;28.194;2023-02-20T06:49:45;84631.83;;;22.66;52.01
40948;BME280;49382;-25.924;28.194;2023-02-20T06:52:11;84634.29;;;22.65;51.75
40948;BME280;49382;-25.924;28.194;2023-02-20T06:54:37;84633.62;;;22.56;51.61
40948;BME280;49382;-25.924;28.194;2023-02-20T06:57:02;84632.54;;;22.10;52.73
40948;BME280;49382;-25.924;28.194;2023-02-20T06:59:27;84633.73;;;22.76;50.25
40948;BME280;49382;-25.924;28.194;2023-02-20T07:01:53;84635.93;;;22.38;51.40
40948;BME280;49382;-25.924;28.194;2023-02-20T07:04:21;84634.25;;;22.44;51.21
40948;BME280;49382;-25.924;28.194;2023-02-20T07:06:45;84628.63;;;22.77;50.26
40948;BME280;49382;-25.924;28.194;2023-02-20T07:09:11;84622.96;;;21.90;52.42
40948;BME280;49382;-25.924;28.194;2023-02-20T07:11:36;84621.10;;;23.01;50.13
40948;BME280;49382;-25.924;28.194;2023-02-20T07:14:02;84622.32;;;22.95;51.01
40948;BME280;49382;-25.924;28.194;2023-02-20T07:16:28;84616.78;;;22.58;51.18
40948;BME280;49382;-25.924;28.194;2023-02-20T07:18:53;84621.75;;;23.50;50.50
40948;BME280;49382;-25.924;28.194;2023-02-20T07:21:19;84617.55;;;24.26;49.03
40948;BME280;49382;-25.924;28.194;2023-02-20T07:23:45;84621.24;;;24.49;50.14
40948;BME280;49382;-25.924;28.194;2023-02-20T07:26:17;84619.67;;;25.39;47.32
40948;BME280;49382;-25.924;28.194;2023-02-20T07:28:36;84613.98;;;24.06;49.44
40948;BME280;49382;-25.924;28.194;2023-02-20T07:31:02;84609.40;;;23.89;49.77
40948;BME280;49382;-25.924;28.194;2023-02-20T07:33:28;84611.37;;;23.59;51.64
40948;BME280;49382;-25.924;28.194;2023-02-20T07:35:54;84610.14;;;24.72;47.91
40948;BME280;49382;-25.924;28.194;2023-02-20T07:38:19;84608.56;;;25.18;48.29
40948;BME280;49382;-25.924;28.194;2023-02-20T07:40:45;84601.56;;;23.93;49.58
40948;BME280;49382;-25.924;28.194;2023-02-20T07:43:11;84593.12;;;24.15;49.63
40948;BME280;49382;-25.924;28.194;2023-02-20T07:45:36;84595.38;;;23.97;49.67
40948;BME280;49382;-25.924;28.194;2023-02-20T07:48:01;84592.06;;;23.85;49.28
40948;BME280;49382;-25.924;28.194;2023-02-20T07:50:27;84590.94;;;25.73;47.14
40948;BME280;49382;-25.924;28.194;2023-02-20T07:52:52;84587.54;;;25.43;47.18
40948;BME280;49382;-25.924;28.194;2023-02-20T07:55:18;84584.76;;;24.58;48.70
40948;BME280;49382;-25.924;28.194;2023-02-20T07:57:46;84587.23;;;25.30;47.08
40948;BME280;49382;-25.924;28.194;2023-02-20T08:00:12;84584.39;;;25.37;45.70
40948;BME280;49382;-25.924;28.194;2023-02-20T08:02:34;84578.85;;;25.14;46.77
40948;BME280;49382;-25.924;28.194;2023-02-20T08:04:59;84576.22;;;25.27;46.30
40948;BME280;49382;-25.924;28.194;2023-02-20T08:07:24;84571.01;;;25.59;47.46
40948;BME280;49382;-25.924;28.194;2023-02-20T08:09:50;84572.30;;;25.25;47.24
40948;BME280;49382;-25.924;28.194;2023-02-20T08:12:15;84567.72;;;25.04;45.68
40948;BME280;49382;-25.924;28.194;2023-02-20T08:14:41;84568.30;;;25.12;47.24
40948;BME280;49382;-25.924;28.194;2023-02-20T08:17:07;84565.29;;;26.91;44.42
40948;BME280;49382;-25.924;28.194;2023-02-20T08:19:32;84557.12;;;26.12;44.43
40948;BME280;49382;-25.924;28.194;2023-02-20T08:21:58;84562.78;;;26.56;44.00
40948;BME280;49382;-25.924;28.194;2023-02-20T08:24:23;84563.16;;;25.74;44.35
40948;BME280;49382;-25.924;28.194;2023-02-20T08:26:49;84560.24;;;25.28;44.01
40948;BME280;49382;-25.924;28.194;2023-02-20T08:29:16;84563.26;;;27.24;42.89
40948;BME280;49382;-25.924;28.194;2023-02-20T08:31:41;84561.76;;;26.45;43.23
40948;BME280;49382;-25.924;28.194;2023-02-20T08:34:07;84562.07;;;26.14;44.45
40948;BME280;49382;-25.924;28.194;2023-02-20T08:36:32;84565.84;;;25.77;44.09
40948;BME280;49382;-25.924;28.194;2023-02-20T08:38:58;84567.11;;;27.75;41.18
40948;BME280;49382;-25.924;28.194;2023-02-20T08:41:24;84564.04;;;26.82;41.69
40948;BME280;49382;-25.924;28.194;2023-02-20T08:43:49;84562.65;;;25.69;42.54
40948;BME280;49382;-25.924;28.194;2023-02-20T08:46:15;84559.73;;;26.48;41.23
40948;BME280;49382;-25.924;28.194;2023-02-20T08:48:41;84556.20;;;26.27;41.56
40948;BME280;49382;-25.924;28.194;2023-02-20T08:51:06;84557.93;;;27.60;39.91
40948;BME280;49382;-25.924;28.194;2023-02-20T08:53:32;84562.32;;;27.69;39.81
40948;BME280;49382;-25.924;28.194;2023-02-20T08:55:58;84566.26;;;26.90;41.64
40948;BME280;49382;-25.924;28.194;2023-02-20T08:58:24;84561.20;;;28.14;41.84
40948;BME280;49382;-25.924;28.194;2023-02-20T09:00:50;84565.09;;;27.71;41.49
40948;BME280;49382;-25.924;28.194;2023-02-20T09:03:15;84565.12;;;26.72;41.95
40948;BME280;49382;-25.924;28.194;2023-02-20T09:05:41;84565.61;;;27.48;42.56
40948;BME280;49382;-25.924;28.194;2023-02-20T09:08:06;84567.80;;;27.64;42.26
40948;BME280;49382;-25.924;28.194;2023-02-20T09:10:32;84566.92;;;27.20;41.13
40948;BME280;49382;-25.924;28.194;2023-02-20T09:12:57;84565.06;;;27.92;41.46
40948;BME280;49382;-25.924;28.194;2023-02-20T09:15:23;84566.75;;;28.74;40.00
40948;BME280;49382;-25.924;28.194;2023-02-20T09:17:49;84569.32;;;27.80;41.14
40948;BME280;49382;-25.924;28.194;2023-02-20T09:20:15;84568.21;;;26.63;41.14
40948;BME280;49382;-25.924;28.194;2023-02-20T09:22:40;84566.92;;;26.57;42.97
40948;BME280;49382;-25.924;28.194;2023-02-20T09:25:06;84565.26;;;26.28;42.81
40948;BME280;49382;-25.924;28.194;2023-02-20T09:27:32;84563.76;;;27.37;41.46
40948;BME280;49382;-25.924;28.194;2023-02-20T09:29:57;84562.98;;;28.01;41.95
40948;BME280;49382;-25.924;28.194;2023-02-20T09:32:23;84560.64;;;28.24;41.56
40948;BME280;49382;-25.924;28.194;2023-02-20T09:34:49;84562.65;;;28.68;40.79
40948;BME280;49382;-25.924;28.194;2023-02-20T09:37:15;84559.31;;;27.42;41.05
40948;BME280;49382;-25.924;28.194;2023-02-20T09:39:40;84565.07;;;27.73;41.00
40948;BME280;49382;-25.924;28.194;2023-02-20T09:42:15;84564.40;;;27.12;42.31
40948;BME280;49382;-25.924;28.194;2023-02-20T09:44:38;84558.05;;;28.95;39.75
40948;BME280;49382;-25.924;28.194;2023-02-20T09:47:01;84558.77;;;29.37;40.07
40948;BME280;49382;-25.924;28.194;2023-02-20T09:49:26;84560.25;;;29.36;39.43
40948;BME280;49382;-25.924;28.194;2023-02-20T09:51:53;84559.23;;;29.43;39.60
40948;BME280;49382;-25.924;28.194;2023-02-20T09:54:16;84555.81;;;28.78;40.57
40948;BME280;49382;-25.924;28.194;2023-02-20T09:56:43;84554.20;;;28.44;42.08
40948;BME280;49382;-25.924;28.194;2023-02-20T09:59:09;84549.47;;;28.32;41.19
40948;BME280;49382;-25.924;28.194;2023-02-20T10:01:31;84552.46;;;28.44;39.74
40948;BME280;49382;-25.924;28.194;2023-02-20T10:03:58;84550.64;;;28.01;40.25
40948;BME280;49382;-25.924;28.194;2023-02-20T10:06:24;84545.77;;;28.03;39.20
40948;BME280;49382;-25.924;28.194;2023-02-20T10:08:48;84544.17;;;27.23;39.62
40948;BME280;49382;-25.924;28.194;2023-02-20T10:11:21;84535.00;;;28.69;38.27
40948;BME280;49382;-25.924;28.194;2023-02-20T10:13:47;84528.03;;;29.33;38.31
40948;BME280;49382;-25.924;28.194;2023-02-20T10:16:12;84526.34;;;29.16;37.88
40948;BME280;49382;-25.924;28.194;2023-02-20T10:18:36;84534.50;;;29.08;38.52
40948;BME280;49382;-25.924;28.194;2023-02-20T10:21:00;84537.35;;;28.49;39.17
40948;BME280;49382;-25.924;28.194;2023-02-20T10:23:31;84531.47;;;26.98;40.41
40948;BME280;49382;-25.924;28.194;2023-02-20T10:25:49;84519.92;;;29.14;37.86
40948;BME280;49382;-25.924;28.194;2023-02-20T10:28:15;84517.73;;;29.55;37.59
40948;BME280;49382;-25.924;28.194;2023-02-20T10:30:40;84517.03;;;29.41;38.27
40948;BME280;49382;-25.924;28.194;2023-02-20T10:33:13;84511.56;;;28.90;38.45
40948;BME280;49382;-25.924;28.194;2023-02-20T10:35:35;84508.95;;;28.23;39.01
40948;BME280;49382;-25.924;28.194;2023-02-20T10:37:58;84513.94;;;27.66;39.42
40948;BME280;49382;-25.924;28.194;2023-02-20T10:40:25;84512.47;;;27.70;39.77
40948;BME280;49382;-25.924;28.194;2023-02-20T10:42:50;84504.64;;;29.12;38.71
40948;BME280;49382;-25.924;28.194;2023-02-20T10:45:15;84508.08;;;29.54;37.91
40948;BME280;49382;-25.924;28.194;2023-02-20T10:47:44;84513.30;;;27.58;39.06
40948;BME280;49382;-25.924;28.194;2023-02-20T10:50:07;84507.77;;;27.94;38.41
40948;BME280;49382;-25.924;28.194;2023-02-20T10:52:31;84504.99;;;28.86;37.25
40948;BME280;49382;-25.924;28.194;2023-02-20T10:54:58;84498.96;;;29.55;36.22
40948;BME280;49382;-25.924;28.194;2023-02-20T10:57:24;84501.16;;;29.91;36.45
40948;BME280;49382;-25.924;28.194;2023-02-20T10:59:49;84497.09;;;29.13;37.03
40948;BME280;49382;-25.924;28.194;2023-02-20T11:02:20;84496.62;;;28.42;36.98
40948;BME280;49382;-25.924;28.194;2023-02-20T11:04:41;84493.79;;;28.55;37.06
40948;BME280;49382;-25.924;28.194;2023-02-20T11:07:07;84492.67;;;28.26;37.66
40948;BME280;49382;-25.924;28.194;2023-02-20T11:09:29;84490.69;;;28.55;36.67
40948;BME280;49382;-25.924;28.194;2023-02-20T11:11:55;84492.97;;;26.92;38.31
40948;BME280;49382;-25.924;28.194;2023-02-20T11:14:25;84486.66;;;28.88;36.27
40948;BME280;49382;-25.924;28.194;2023-02-20T11:16:51;84482.35;;;29.43;36.01
40948;BME280;49382;-25.924;28.194;2023-02-20T11:19:16;84481.81;;;28.62;36.98
40948;BME280;49382;-25.924;28.194;2023-02-20T11:21:40;84475.20;;;29.44;36.38
40948;BME280;49382;-25.924;28.194;2023-02-20T11:26:31;84463.49;;;28.19;37.32
40948;BME280;49382;-25.924;28.194;2023-02-20T11:28:58;84465.67;;;29.37;35.87
40948;BME280;49382;-25.924;28.194;2023-02-20T11:31:21;84465.33;;;29.04;35.94
40948;BME280;49382;-25.924;28.194;2023-02-20T11:33:46;84462.71;;;29.36;35.31
40948;BME280;49382;-25.924;28.194;2023-02-20T11:36:13;84460.86;;;28.52;35.95
40948;BME280;49382;-25.924;28.194;2023-02-20T11:38:36;84460.09;;;28.55;36.34
40948;BME280;49382;-25.924;28.194;2023-02-20T11:41:08;84454.83;;;28.30;36.35
40948;BME280;49382;-25.924;28.194;2023-02-20T11:43:29;84433.05;;;28.70;35.53
40948;BME280;49382;-25.924;28.194;2023-02-20T11:48:20;84423.56;;;29.62;35.54
40948;BME280;49382;-25.924;28.194;2023-02-20T11:50:46;84424.79;;;28.43;36.23
40948;BME280;49382;-25.924;28.194;2023-02-20T11:53:18;84421.97;;;29.58;34.48
40948;BME280;49382;-25.924;28.194;2023-02-20T11:55:35;84417.87;;;29.28;34.46
40948;BME280;49382;-25.924;28.194;2023-02-20T11:58:02;84423.94;;;29.75;33.71
40948;BME280;49382;-25.924;28.194;2023-02-20T12:00:29;84425.50;;;29.77;34.03
40948;BME280;49382;-25.924;28.194;2023-02-20T12:02:55;84424.41;;;29.95;33.01
40948;BME280;49382;-25.924;28.194;2023-02-20T12:05:19;84427.57;;;29.96;32.87
40948;BME280;49382;-25.924;28.194;2023-02-20T12:12:35;84437.39;;;29.85;33.58
40948;BME280;49382;-25.924;28.194;2023-02-20T12:15:01;84430.09;;;30.07;32.93
40948;BME280;49382;-25.924;28.194;2023-02-20T12:17:33;84422.22;;;29.94;33.21
40948;BME280;49382;-25.924;28.194;2023-02-20T12:19:56;84415.47;;;30.01;32.67
40948;BME280;49382;-25.924;28.194;2023-02-20T12:22:25;84419.22;;;29.68;32.88
40948;BME280;49382;-25.924;28.194;2023-02-20T12:27:23;84420.68;;;29.58;32.75
40948;BME280;49382;-25.924;28.194;2023-02-20T12:29:41;84426.88;;;29.58;32.79
40948;BME280;49382;-25.924;28.194;2023-02-20T12:32:11;84437.42;;;29.96;32.53
40948;BME280;49382;-25.924;28.194;2023-02-20T12:34:39;84449.72;;;28.69;33.72
40948;BME280;49382;-25.924;28.194;2023-02-20T12:36:56;84462.33;;;29.50;32.85
40948;BME280;49382;-25.924;28.194;2023-02-20T12:39:24;84516.97;;;28.10;31.73
40948;BME280;49382;-25.924;28.194;2023-02-20T12:41:48;84538.43;;;27.34;30.21
40948;BME280;49382;-25.924;28.194;2023-02-20T12:44:25;84533.96;;;27.08;30.92
40948;BME280;49382;-25.924;28.194;2023-02-20T12:46:37;84567.53;;;26.85;31.99
40948;BME280;49382;-25.924;28.194;2023-02-20T12:49:13;84592.07;;;24.69;38.81
40948;BME280;49382;-25.924;28.194;2023-02-20T12:51:28;84597.67;;;23.82;40.62
40948;BME280;49382;-25.924;28.194;2023-02-20T12:54:00;84612.85;;;22.94;42.77
40948;BME280;49382;-25.924;28.194;2023-02-20T12:56:26;84608.03;;;23.70;41.42
40948;BME280;49382;-25.924;28.194;2023-02-20T12:58:48;84620.82;;;23.54;42.11
40948;BME280;49382;-25.924;28.194;2023-02-20T13:01:10;84631.43;;;24.23;41.55
40948;BME280;49382;-25.924;28.194;2023-02-20T13:03:40;84651.07;;;22.68;42.93